Time;durP1;ratioP1;P1;durP2;ratioP2;P2;SDS_P1;SDS_P2;PMS_P1;PMS_P2;Temp;Humidity;BMP_temperature;BMP_pressure;BME280_temperature;BME280_humidity;BME280_pressure;Samples;Min_cycle;Max_cycle;Signal;HPM_P1;HPM_P2
2023/09/10 00:01:32;;;;;;;9.43;5.25;;;;;;;21.28;52.71;99511.13;4362113;32;33422;-89
2023/09/10 00:04:00;;;;;;;7.97;5.50;;;;;;;21.29;52.80;99507.63;4375274;32;34360;-91
2023/09/10 00:06:27;;;;;;;10.10;5.40;;;;;;;21.28;52.74;99510.28;4375141;32;34207;-93
2023/09/10 00:08:55;;;;;;;8.27;4.85;;;;;;;21.31;52.68;99508.41;4361913;32;33519;-86
2023/09/10 00:11:22;;;;;;;7.68;5.45;;;;;;;21.40;52.46;99509.97;4375569;32;35043;-95
2023/09/10 00:13:50;;;;;;;8.63;5.57;;;;;;;21.48;52.21;99500.13;4375290;32;34186;-87
2023/09/10 00:16:17;;;;;;;9.35;5.93;;;;;;;21.34;52.28;99502.25;4375121;32;33445;-92
2023/09/10 00:18:45;;;;;;;8.30;5.03;;;;;;;21.40;52.19;99498.56;4361959;32;33752;-86
2023/09/10 00:21:13;;;;;;;10.23;6.05;;;;;;;21.42;52.14;99496.78;4361457;32;32648;-94
2023/09/10 00:23:40;;;;;;;8.98;5.93;;;;;;;21.35;52.21;99506.59;4375046;32;34681;-90
2023/09/10 00:26:09;;;;;;;8.13;5.35;;;;;;;21.27;52.37;99504.13;4361572;32;33661;-85
2023/09/10 00:28:38;;;;;;;8.10;5.43;;;;;;;21.28;52.34;99502.34;4334777;32;32236;-92
2023/09/10 00:31:07;;;;;;;7.47;5.20;;;;;;;21.29;52.35;99504.97;4354598;32;33706;-92
2023/09/10 00:33:35;;;;;;;7.00;5.35;;;;;;;21.24;52.88;99506.84;4349052;32;34888;-89
2023/09/10 00:36:03;;;;;;;8.23;5.80;;;;;;;21.27;52.62;99500.63;4361521;32;33463;-92
2023/09/10 00:38:30;;;;;;;8.88;5.82;;;;;;;21.29;52.55;99496.16;4361697;32;34125;-85
2023/09/10 00:40:58;;;;;;;8.48;5.40;;;;;;;21.26;52.88;99497.13;4369501;32;34138;-87
2023/09/10 00:43:26;;;;;;;8.52;5.53;;;;;;;21.20;53.04;99497.28;4374517;32;33921;-87
2023/09/10 00:45:54;;;;;;;9.32;5.70;;;;;;;21.20;52.72;99505.19;4374064;32;33939;-88
2023/09/10 00:48:22;;;;;;;9.35;5.95;;;;;;;21.23;52.58;99502.47;4375125;32;33910;-87
2023/09/10 00:50:50;;;;;;;7.95;5.32;;;;;;;21.17;52.75;99502.62;4375294;32;33976;-93
2023/09/10 00:53:18;;;;;;;8.35;5.95;;;;;;;21.19;52.55;99500.81;4374811;32;33554;-92
2023/09/10 00:55:47;;;;;;;9.45;5.68;;;;;;;21.20;52.49;99502.56;4375170;32;33235;-87
2023/09/10 00:58:15;;;;;;;9.57;5.72;;;;;;;21.16;52.58;99500.91;4374979;32;33929;-94
2023/09/10 01:00:43;;;;;;;9.07;5.75;;;;;;;21.19;52.54;99506.09;4375013;32;34839;-87
2023/09/10 01:03:11;;;;;;;8.15;5.55;;;;;;;21.13;52.72;99506.25;4360878;32;33460;-89
2023/09/10 01:05:38;;;;;;;9.50;5.28;;;;;;;21.18;52.74;99503.50;4360968;32;33508;-87
2023/09/10 01:08:06;;;;;;;11.12;6.37;;;;;;;21.12;52.92;99510.66;4375029;32;34076;-87
2023/09/10 01:10:52;;;;;;;7.70;5.47;;;;;;;21.02;53.54;99509.12;4374399;32;35175;-87
2023/09/10 01:13:38;;;;;;;9.10;6.03;;;;;;;21.15;53.34;99507.09;4361402;32;33851;-87
2023/09/10 01:16:32;;;;;;;9.02;6.12;;;;;;;21.19;52.96;99508.75;4359973;32;34471;-87
2023/09/10 01:19:06;;;;;;;8.73;5.72;;;;;;;21.05;53.26;99501.16;4359822;32;33610;-87
2023/09/10 01:21:40;;;;;;;9.88;5.75;;;;;;;21.00;53.18;99492.50;4361124;32;34348;-86
2023/09/10 01:24:12;;;;;;;8.35;5.70;;;;;;;21.05;53.20;99497.66;4361502;32;34604;-87
2023/09/10 01:26:40;;;;;;;9.60;5.50;;;;;;;21.07;53.26;99495.88;4374714;32;33312;-87
2023/09/10 01:29:13;;;;;;;8.10;6.03;;;;;;;21.06;53.28;99494.09;4374683;32;34295;-87
2023/09/10 01:31:44;;;;;;;8.90;5.75;;;;;;;21.01;53.35;99498.66;4374072;32;34829;-88
2023/09/10 01:34:14;;;;;;;8.13;5.70;;;;;;;20.97;53.55;99495.22;4374957;32;33517;-87
2023/09/10 01:36:45;;;;;;;7.62;5.35;;;;;;;20.99;53.56;99495.19;4348676;32;33620;-88
2023/09/10 01:39:40;;;;;;;8.75;5.87;;;;;;;20.98;53.55;99496.06;4360858;32;34390;-86
2023/09/10 01:42:08;;;;;;;8.98;5.85;;;;;;;21.08;53.25;99502.88;4359620;32;33960;-87
2023/09/10 01:44:36;;;;;;;9.98;5.62;;;;;;;20.91;54.15;99500.66;4348683;32;34747;-88
2023/09/10 01:47:04;;;;;;;7.78;5.60;;;;;;;20.91;54.17;99495.38;4348744;32;33389;-88
2023/09/10 01:49:31;;;;;;;8.50;5.90;;;;;;;21.02;53.88;99492.47;4374705;32;34066;-87
2023/09/10 01:51:59;;;;;;;10.05;6.32;;;;;;;21.03;53.73;99504.75;4360844;32;34918;-87
2023/09/10 01:54:27;;;;;;;8.15;6.05;;;;;;;20.92;54.03;99493.59;4374502;32;33841;-87
2023/09/10 01:56:54;;;;;;;7.82;5.60;;;;;;;20.95;53.90;99496.16;4374215;32;34240;-87
2023/09/10 01:59:22;;;;;;;10.77;5.60;;;;;;;20.87;54.00;99498.97;4374576;32;34109;-86
2023/09/10 02:01:50;;;;;;;8.27;5.82;;;;;;;21.01;53.52;99496.00;4360488;32;33529;-87
2023/09/10 02:04:18;;;;;;;7.53;5.68;;;;;;;21.01;53.62;99496.00;4373834;32;34246;-87
2023/09/10 02:06:45;;;;;;;10.10;6.22;;;;;;;20.97;54.02;99496.97;4373589;32;33661;-87
2023/09/10 02:09:13;;;;;;;8.52;5.78;;;;;;;20.94;54.08;99499.69;4373914;32;34225;-87
2023/09/10 02:11:42;;;;;;;8.93;5.75;;;;;;;20.94;54.14;99503.19;4373814;32;34887;-86
2023/09/10 02:14:10;;;;;;;10.25;5.78;;;;;;;20.98;53.76;99503.97;4374202;32;33700;-88
2023/09/10 02:16:37;;;;;;;8.90;6.00;;;;;;;20.97;53.81;99503.13;4376201;32;33610;-88
2023/09/10 02:19:07;;;;;;;10.35;5.62;;;;;;;20.93;53.99;99509.38;4375793;32;34028;-87
2023/09/10 02:21:34;;;;;;;8.23;5.95;;;;;;;20.90;54.06;99504.16;4376235;32;34220;-90
2023/09/10 02:24:02;;;;;;;10.15;6.10;;;;;;;20.78;54.47;99505.31;4376306;32;34924;-87
2023/09/10 02:26:30;;;;;;;8.73;6.20;;;;;;;20.86;54.31;99508.63;4376057;32;33354;-87
2023/09/10 02:28:57;;;;;;;8.80;5.82;;;;;;;20.83;54.26;99506.06;4376245;32;33986;-87
2023/09/10 02:31:32;;;;;;;7.80;5.43;;;;;;;20.80;54.45;99511.44;4375894;32;33719;-87
2023/09/10 02:34:01;;;;;;;8.48;6.32;;;;;;;20.90;54.33;99512.94;4376193;32;33885;-87
2023/09/10 02:36:31;;;;;;;8.63;5.97;;;;;;;20.77;54.70;99511.50;4362465;32;33424;-87
2023/09/10 02:38:58;;;;;;;9.82;5.68;;;;;;;20.80;54.55;99508.81;4376039;32;33674;-88
2023/09/10 02:41:26;;;;;;;8.88;5.72;;;;;;;20.69;54.63;99505.56;4376413;32;34274;-87
2023/09/10 02:43:54;;;;;;;12.05;6.53;;;;;;;20.67;54.86;99507.34;4375702;32;34523;-87
2023/09/10 02:46:23;;;;;;;9.80;5.85;;;;;;;20.71;54.54;99508.13;4362490;32;32828;-87
2023/09/10 02:48:51;;;;;;;8.00;5.97;;;;;;;20.67;54.64;99507.34;4376204;32;33983;-88
2023/09/10 02:51:18;;;;;;;8.60;5.75;;;;;;;20.82;54.07;99506.13;4362443;32;33716;-88
2023/09/10 02:53:48;;;;;;;8.88;6.07;;;;;;;20.69;54.33;99500.28;4375977;32;35041;-87
2023/09/10 02:56:16;;;;;;;9.18;6.55;;;;;;;20.64;54.74;99496.88;4362045;32;33324;-88
2023/09/10 02:58:44;;;;;;;10.60;6.40;;;;;;;20.57;54.92;99500.53;4362351;32;33947;-87
2023/09/10 03:01:13;;;;;;;9.77;5.97;;;;;;;20.49;55.08;99503.34;4362672;32;33429;-86
2023/09/10 03:03:40;;;;;;;8.25;6.07;;;;;;;20.42;55.25;99496.47;4375800;32;34600;-86
2023/09/10 03:06:14;;;;;;;10.55;6.35;;;;;;;20.58;55.02;99502.28;4362434;32;32629;-88
2023/09/10 03:08:44;;;;;;;9.93;6.28;;;;;;;20.48;55.20;99500.72;4375808;32;34586;-86
2023/09/10 03:11:11;;;;;;;10.52;6.22;;;;;;;20.50;55.08;99496.34;4376518;32;34015;-88
2023/09/10 03:13:39;;;;;;;9.68;6.00;;;;;;;20.57;55.12;99500.53;4375250;32;33692;-85
2023/09/10 03:16:07;;;;;;;8.65;5.80;;;;;;;20.48;55.53;99500.72;4362067;32;33454;-91
2023/09/10 03:18:35;;;;;;;9.60;6.03;;;;;;;20.50;55.47;99498.97;4362174;32;34630;-87
2023/09/10 03:21:03;;;;;;;7.90;6.03;;;;;;;20.46;55.56;99498.13;4361710;32;32527;-87
2023/09/10 03:23:31;;;;;;;8.82;5.62;;;;;;;20.46;55.56;99497.28;4376245;32;34119;-87
2023/09/10 03:25:58;;;;;;;8.13;6.07;;;;;;;20.38;55.90;99498.31;4375840;32;33361;-87
2023/09/10 03:28:26;;;;;;;9.43;6.35;;;;;;;20.35;56.13;99495.72;4375642;32;34949;-93
2023/09/10 03:30:57;;;;;;;8.82;6.22;;;;;;;20.33;56.26;99492.25;4361766;32;32790;-87
2023/09/10 03:33:25;;;;;;;8.68;6.35;;;;;;;20.34;56.28;99491.37;4376067;32;33512;-87
2023/09/10 03:35:53;;;;;;;9.23;6.93;;;;;;;20.40;56.03;99493.84;4361894;32;33470;-87
2023/09/10 03:38:21;;;;;;;9.18;5.78;;;;;;;20.43;56.17;99487.66;4375432;32;32329;-87
2023/09/10 03:40:49;;;;;;;8.05;6.03;;;;;;;20.44;55.80;99488.53;4375498;32;33713;-88
2023/09/10 03:43:17;;;;;;;7.85;5.95;;;;;;;20.47;55.60;99483.19;4361896;32;33906;-87
2023/09/10 03:45:44;;;;;;;9.48;6.37;;;;;;;20.43;55.66;99482.41;4361943;32;33057;-87
2023/09/10 03:48:13;;;;;;;9.05;6.50;;;;;;;20.39;56.12;99483.37;4361973;32;33836;-87
2023/09/10 03:50:40;;;;;;;8.38;6.47;;;;;;;20.33;56.40;99481.72;4375387;32;34862;-87
2023/09/10 03:53:08;;;;;;;9.15;6.32;;;;;;;20.35;56.38;99487.84;4375694;32;33603;-87
2023/09/10 03:55:36;;;;;;;9.20;6.25;;;;;;;20.38;56.10;99487.78;4375682;32;33476;-87
2023/09/10 03:58:04;;;;;;;9.48;6.72;;;;;;;20.39;55.83;99481.59;4362333;32;33853;-95
2023/09/10 04:00:33;;;;;;;10.68;6.43;;;;;;;20.33;55.87;99481.72;4375730;32;34029;-87
2023/09/10 04:03:02;;;;;;;9.25;6.37;;;;;;;20.36;55.86;99481.66;4375567;32;34250;-87
2023/09/10 04:05:30;;;;;;;9.43;6.53;;;;;;;20.41;55.78;99476.28;4362016;32;32779;-88
2023/09/10 04:07:58;;;;;;;10.10;6.45;;;;;;;20.40;55.79;99477.19;4359300;32;34875;-86
2023/09/10 04:10:27;;;;;;;10.35;5.90;;;;;;;20.33;55.96;99487.00;4359432;32;34760;-86
2023/09/10 04:12:54;;;;;;;8.13;6.50;;;;;;;20.32;56.00;99490.53;4360488;32;34062;-87
2023/09/10 04:15:22;;;;;;;9.20;6.15;;;;;;;20.30;56.08;99487.03;4360483;32;33552;-88
2023/09/10 04:17:50;;;;;;;10.32;6.65;;;;;;;20.30;56.06;99492.31;4359247;32;33867;-87
2023/09/10 04:20:19;;;;;;;11.75;6.93;;;;;;;20.32;56.21;99490.53;4360678;32;35679;-95
2023/09/10 04:22:47;;;;;;;10.23;6.72;;;;;;;20.29;56.39;99490.59;4360499;32;34004;-90
2023/09/10 04:25:15;;;;;;;9.10;6.28;;;;;;;20.21;56.67;99489.91;4360512;32;34227;-87
2023/09/10 04:27:42;;;;;;;9.35;6.50;;;;;;;20.12;57.00;99490.97;4360728;32;34000;-88
2023/09/10 04:30:10;;;;;;;10.48;6.65;;;;;;;20.05;57.28;99496.38;4360359;32;34618;-87
2023/09/10 04:32:38;;;;;;;9.15;6.68;;;;;;;20.16;56.87;99494.41;4358777;32;32541;-87
2023/09/10 04:35:07;;;;;;;9.68;6.62;;;;;;;20.08;57.10;99499.81;4360653;32;34441;-93
2023/09/10 04:37:34;;;;;;;10.55;7.00;;;;;;;20.05;57.15;99499.88;4360112;32;33875;-86
2023/09/10 04:40:06;;;;;;;11.00;7.10;;;;;;;20.07;57.11;99500.69;4330919;33;33901;-93
2023/09/10 04:42:34;;;;;;;8.52;6.37;;;;;;;20.14;56.90;99498.81;4344147;33;33703;-87
2023/09/10 04:45:06;;;;;;;11.18;6.50;;;;;;;20.24;56.60;99495.09;4344480;33;33206;-87
2023/09/10 04:47:33;;;;;;;9.68;6.50;;;;;;;20.28;56.65;99501.16;4348157;32;34591;-95
2023/09/10 04:50:01;;;;;;;8.57;6.40;;;;;;;20.53;56.20;99506.78;4359023;32;35090;-87
2023/09/10 04:52:29;;;;;;;9.50;6.18;;;;;;;20.67;55.84;99512.63;4359128;32;34991;-88
2023/09/10 04:54:57;;;;;;;10.75;6.93;;;;;;;20.80;55.38;99505.31;4346634;32;33315;-86
2023/09/10 04:57:26;;;;;;;8.45;6.00;;;;;;;21.01;54.94;99511.81;4359043;32;33527;-87
2023/09/10 04:59:55;;;;;;;8.80;6.07;;;;;;;21.35;54.08;99515.38;4360220;32;34254;-88
2023/09/10 05:02:23;;;;;;;10.93;6.57;;;;;;;21.49;53.63;99511.53;4359832;32;34117;-91
2023/09/10 05:04:51;;;;;;;9.50;6.05;;;;;;;21.56;54.08;99510.47;4360178;32;34018;-87
2023/09/10 05:07:19;;;;;;;10.05;5.80;;;;;;;21.86;53.44;99519.34;4358969;32;34441;-86
2023/09/10 05:09:46;;;;;;;8.77;6.18;;;;;;;21.90;53.60;99509.56;4359586;32;33799;-87
2023/09/10 05:12:14;;;;;;;8.93;6.10;;;;;;;22.05;52.70;99501.19;4359570;32;33423;-86
2023/09/10 05:14:42;;;;;;;9.40;5.80;;;;;;;22.18;52.69;99510.50;4359876;32;33199;-87
2023/09/10 05:17:09;;;;;;;9.05;5.57;;;;;;;22.31;52.46;99511.00;4359962;32;33480;-87
2023/09/10 05:19:37;;;;;;;10.98;6.28;;;;;;;22.41;52.17;99508.97;4360175;32;33820;-87
2023/09/10 05:22:06;;;;;;;8.98;6.22;;;;;;;22.59;52.16;99511.91;4359577;32;34190;-87
2023/09/10 05:24:34;;;;;;;9.68;6.07;;;;;;;22.79;52.18;99521.87;4359328;32;33497;-87
2023/09/10 05:27:02;;;;;;;8.57;5.53;;;;;;;22.92;51.36;99516.22;4357889;32;34020;-86
2023/09/10 05:29:30;;;;;;;13.02;6.55;;;;;;;22.91;51.26;99519.75;4359601;32;34937;-85
2023/09/10 05:31:57;;;;;;;12.02;6.00;;;;;;;23.01;51.21;99519.44;4360000;32;33749;-87
2023/09/10 05:34:25;;;;;;;9.52;6.30;;;;;;;23.17;51.26;99522.44;4359587;32;33283;-87
2023/09/10 05:36:53;;;;;;;9.38;6.15;;;;;;;22.86;52.76;99529.63;4359838;32;34380;-87
2023/09/10 05:39:21;;;;;;;9.77;6.12;;;;;;;22.49;53.50;99530.75;4359732;32;35188;-89
2023/09/10 05:41:48;;;;;;;9.73;5.85;;;;;;;22.81;53.15;99533.28;4358686;32;33919;-87
2023/09/10 05:44:16;;;;;;;11.00;7.15;;;;;;;23.01;52.12;99531.81;4359531;32;33469;-87
2023/09/10 05:46:44;;;;;;;7.90;5.85;;;;;;;23.16;52.15;99530.44;4359492;32;34887;-86
2023/09/10 05:49:12;;;;;;;8.23;6.20;;;;;;;;;;4358530;32;34368;-87
2023/09/10 05:51:40;;;;;;;8.77;5.62;;;;;;;23.21;51.34;99534.66;4361682;32;34800;-91
2023/09/10 05:54:07;;;;;;;8.60;5.72;;;;;;;23.21;51.69;99532.00;4360429;32;34653;-96
2023/09/10 05:56:34;;;;;;;9.73;6.18;;;;;;;23.12;52.06;99537.63;4362200;32;33964;-95
2023/09/10 05:59:02;;;;;;;8.93;6.45;;;;;;;23.24;52.70;99537.19;4359453;32;35085;-89
2023/09/10 06:01:30;;;;;;;8.85;6.30;;;;;;;23.28;52.45;99538.81;4360181;32;35068;-87
2023/09/10 06:03:59;;;;;;;8.10;6.05;;;;;;;23.27;52.98;99539.75;4361401;32;33628;-86
2023/09/10 06:06:27;;;;;;;9.65;5.97;;;;;;;23.54;52.24;99534.44;4366716;32;33905;-87
2023/09/10 06:08:55;;;;;;;10.73;6.47;;;;;;;23.31;52.54;99537.88;4376618;32;34704;-87
2023/09/10 06:11:23;;;;;;;10.68;6.65;;;;;;;23.29;52.66;99537.03;4375899;32;34976;-87
2023/09/10 06:13:50;;;;;;;9.32;5.87;;;;;;;23.20;53.00;99540.88;4375697;32;33719;-87
2023/09/10 06:16:18;;;;;;;9.60;6.32;;;;;;;23.54;51.76;99543.25;4375848;32;34242;-87
2023/09/10 06:18:47;;;;;;;8.98;6.00;;;;;;;23.28;52.06;99543.25;4361626;32;33909;-87
2023/09/10 06:21:14;;;;;;;11.20;6.20;;;;;;;23.24;53.01;99547.78;4370615;32;34003;-87
2023/09/10 06:23:42;;;;;;;9.13;5.97;;;;;;;23.33;53.28;99549.25;4376407;32;33368;-86
2023/09/10 06:26:10;;;;;;;12.00;6.53;;;;;;;23.15;53.55;99548.09;4362347;32;33413;-88
2023/09/10 06:28:38;;;;;;;10.82;6.68;;;;;;;23.51;51.55;99546.00;4362867;32;34178;-87
2023/09/10 06:31:06;;;;;;;9.63;6.95;;;;;;;23.60;51.74;99550.13;4376221;32;34275;-88
2023/09/10 06:33:34;;;;;;;13.18;9.65;;;;;;;23.46;52.14;99552.37;4362722;32;34443;-89
2023/09/10 06:36:02;;;;;;;10.95;7.15;;;;;;;23.50;50.85;99554.00;4349982;32;33167;-87
2023/09/10 06:38:29;;;;;;;9.32;5.90;;;;;;;23.69;50.02;99555.12;4362506;32;34147;-88
2023/09/10 06:40:57;;;;;;;11.27;6.15;;;;;;;23.70;50.43;99561.28;4376403;32;34559;-88
2023/09/10 06:43:25;;;;;;;10.10;6.47;;;;;;;23.79;50.39;99555.69;4376159;32;33571;-87
2023/09/10 06:45:54;;;;;;;10.55;6.12;;;;;;;23.65;50.76;99556.12;4362507;32;33225;-87
2023/09/10 06:48:22;;;;;;;10.30;6.30;;;;;;;23.64;50.35;99557.03;4370366;32;34806;-88
2023/09/10 06:50:49;;;;;;;9.60;6.03;;;;;;;23.60;50.38;99555.41;4376119;32;33706;-87
2023/09/10 06:53:17;;;;;;;9.15;6.47;;;;;;;23.79;50.08;99555.69;4376113;32;34276;-87
2023/09/10 06:55:46;;;;;;;9.70;6.00;;;;;;;23.97;50.27;99559.44;4375797;32;34107;-87
2023/09/10 06:58:17;;;;;;;8.85;6.03;;;;;;;23.83;50.07;99561.69;4375184;32;33731;-92
2023/09/10 07:00:45;;;;;;;10.82;6.07;;;;;;;23.70;50.33;99563.91;4374028;32;35405;-90
2023/09/10 07:03:13;;;;;;;11.55;6.72;;;;;;;23.90;51.42;99572.03;4374855;32;34449;-95
2023/09/10 07:05:41;;;;;;;9.75;6.07;;;;;;;24.10;49.47;99570.47;4375847;32;35403;-87
2023/09/10 07:08:13;;;;;;;10.23;6.50;;;;;;;24.24;49.69;99577.00;4377310;32;34213;-95
2023/09/10 07:10:40;;;;;;;13.00;6.12;;;;;;;24.01;49.35;99574.28;4363249;32;33695;-90
2023/09/10 07:13:08;;;;;;;11.50;6.53;;;;;;;24.34;49.57;99579.31;4375936;32;33467;-93
2023/09/10 07:15:36;;;;;;;11.10;6.97;;;;;;;24.37;48.71;99566.81;4377685;32;34804;-88
2023/09/10 07:18:04;;;;;;;15.23;6.60;;;;;;;24.21;48.83;99578.91;4376384;32;34293;-87
2023/09/10 07:20:32;;;;;;;10.20;6.45;;;;;;;24.41;49.00;99580.84;4363091;32;34781;-87
2023/09/10 07:23:00;;;;;;;9.68;6.62;;;;;;;24.25;49.14;99588.47;4376280;32;33111;-88
2023/09/10 07:25:27;;;;;;;13.25;6.32;;;;;;;24.35;49.19;99581.03;4363566;32;33536;-88
2023/09/10 07:27:56;;;;;;;8.32;6.32;;;;;;;24.44;48.09;99580.72;4375627;32;34303;-88
2023/09/10 07:30:24;;;;;;;10.55;6.25;;;;;;;24.46;47.83;99573.56;4376188;32;34716;-88
2023/09/10 07:32:52;;;;;;;11.75;6.37;;;;;;;24.64;48.11;99579.97;4376003;32;33915;-86
2023/09/10 07:35:19;;;;;;;11.25;6.62;;;;;;;24.61;47.98;99583.59;4362473;32;34804;-85
2023/09/10 07:37:47;;;;;;;10.95;6.93;;;;;;;24.84;47.60;99587.16;4375532;32;35009;-86
2023/09/10 07:40:15;;;;;;;9.75;6.10;;;;;;;25.04;47.00;99581.94;4376622;32;33679;-95
2023/09/10 07:42:42;;;;;;;8.98;6.37;;;;;;;24.95;46.95;99585.81;4376255;32;34372;-85
2023/09/10 07:45:14;;;;;;;11.48;6.90;;;;;;;24.88;47.33;99586.09;4374528;32;33651;-87
2023/09/10 07:47:42;;;;;;;11.68;6.93;;;;;;;25.36;46.81;99587.75;4375798;32;33915;-85
2023/09/10 07:50:09;;;;;;;11.55;7.00;;;;;;;25.48;46.28;99587.25;4362057;32;34483;-86
2023/09/10 07:52:37;;;;;;;10.40;6.60;;;;;;;25.78;45.77;99590.44;4361871;32;33290;-85
2023/09/10 07:55:05;;;;;;;8.63;5.75;;;;;;;26.03;45.53;99584.94;4375902;32;34712;-84
2023/09/10 07:57:33;;;;;;;9.35;6.30;;;;;;;26.26;44.00;99580.38;4376253;32;34257;-86
2023/09/10 08:00:00;;;;;;;9.68;5.60;;;;;;;26.29;44.09;99573.13;4375905;32;34028;-91
2023/09/10 08:02:37;;;;;;;9.23;6.65;;;;;;;26.35;44.19;99564.88;4348758;32;33625;-84
2023/09/10 08:05:06;;;;;;;10.13;6.07;;;;;;;26.20;43.96;99566.41;4366068;32;34116;-84
2023/09/10 08:07:33;;;;;;;10.50;6.32;;;;;;;26.66;43.12;99566.13;4375499;32;34980;-86
2023/09/10 08:10:01;;;;;;;13.90;6.22;;;;;;;26.55;43.94;99565.78;4374935;32;33336;-84
2023/09/10 08:12:29;;;;;;;9.30;5.80;;;;;;;26.84;42.73;99557.28;4373394;32;34402;-84
2023/09/10 08:14:56;;;;;;;9.95;6.25;;;;;;;26.96;42.74;99562.97;4373235;32;33709;-94
2023/09/10 08:17:24;;;;;;;12.88;5.57;;;;;;;26.80;41.64;99571.69;4375734;32;34204;-88
2023/09/10 08:19:52;;;;;;;7.47;5.18;;;;;;;26.85;41.09;99564.31;4375368;32;34491;-84
2023/09/10 08:22:19;;;;;;;10.20;5.45;;;;;;;27.22;41.62;99567.91;4374797;32;34114;-84
2023/09/10 08:24:48;;;;;;;9.45;5.47;;;;;;;27.30;41.39;99570.19;4376284;32;33907;-84
2023/09/10 08:27:15;;;;;;;9.32;6.07;;;;;;;27.15;40.38;99567.34;4362394;32;34087;-93
2023/09/10 08:29:43;;;;;;;10.65;5.65;;;;;;;26.86;41.10;99565.22;4375432;32;34729;-86
2023/09/10 08:32:11;;;;;;;9.85;6.05;;;;;;;26.82;41.66;99555.62;4375589;32;34038;-85
2023/09/10 08:34:39;;;;;;;10.18;5.35;;;;;;;26.96;41.41;99555.84;4361425;32;33857;-85
2023/09/10 08:37:11;;;;;;;9.32;5.35;;;;;;;27.01;42.02;99558.25;4374388;32;35480;-84
2023/09/10 08:39:38;;;;;;;10.15;5.68;;;;;;;27.07;41.19;99556.19;4375343;32;35012;-86
2023/09/10 08:42:12;;;;;;;10.82;5.82;;;;;;;27.10;40.60;99558.69;4375450;32;34025;-85
2023/09/10 08:44:42;;;;;;;9.32;5.32;;;;;;;27.05;41.03;99554.50;4375373;32;34069;-85
2023/09/10 08:47:11;;;;;;;9.73;5.87;;;;;;;26.89;42.00;99555.25;4360885;32;34189;-85
2023/09/10 08:49:41;;;;;;;9.07;5.80;;;;;;;27.09;41.76;99554.31;4361495;32;34810;-85
2023/09/10 08:52:08;;;;;;;11.38;5.50;;;;;;;27.27;40.70;99547.22;4350323;32;33451;-85
2023/09/10 08:54:36;;;;;;;9.02;6.03;;;;;;;27.15;40.93;99550.50;4361801;32;34063;-85
2023/09/10 08:57:04;;;;;;;10.00;5.75;;;;;;;27.33;41.03;99554.94;4375123;32;34615;-92
2023/09/10 08:59:32;;;;;;;7.43;4.78;;;;;;;27.43;41.65;99547.34;4361756;32;34728;-85
2023/09/10 09:02:00;;;;;;;12.43;5.70;;;;;;;27.71;38.86;99541.47;4374096;32;33719;-92
2023/09/10 09:04:28;;;;;;;8.35;5.65;;;;;;;27.82;40.33;99546.28;4359836;32;34451;-85
2023/09/10 09:06:57;;;;;;;11.40;5.43;;;;;;;27.81;40.56;99542.75;4375199;32;33742;-85
2023/09/10 09:09:32;;;;;;;7.60;5.40;;;;;;;27.88;41.07;99545.94;4361729;32;33944;-86
2023/09/10 09:12:01;;;;;;;13.20;5.68;;;;;;;27.99;39.12;99542.72;4361157;32;33519;-85
2023/09/10 09:14:29;;;;;;;7.28;4.32;;;;;;;28.29;35.52;99534.88;4360557;32;35248;-86
2023/09/10 09:16:57;;;;;;;8.55;4.70;;;;;;;28.47;36.44;99533.06;4360815;32;34871;-86
2023/09/10 09:19:28;;;;;;;9.73;5.35;;;;;;;28.39;37.59;99533.47;4374641;32;33860;-86
2023/09/10 09:21:58;;;;;;;7.97;4.85;;;;;;;28.54;36.73;99537.09;4361919;32;34216;-85
2023/09/10 09:24:25;;;;;;;11.75;5.15;;;;;;;28.59;35.83;99533.22;4361177;32;34007;-85
2023/09/10 09:26:53;;;;;;;9.20;4.57;;;;;;;28.57;34.73;99527.13;4363062;32;34203;-86
2023/09/10 09:29:21;;;;;;;9.18;4.93;;;;;;;28.47;36.42;99525.91;4362294;32;33757;-86
2023/09/10 09:31:49;;;;;;;9.98;5.12;;;;;;;28.43;37.64;99524.34;4362346;32;33764;-93
2023/09/10 09:34:17;;;;;;;8.30;4.40;;;;;;;28.44;36.20;99523.41;4374972;32;34130;-84
2023/09/10 09:36:50;;;;;;;8.75;5.37;;;;;;;28.55;36.70;99515.66;4376539;32;34167;-84
2023/09/10 09:39:20;;;;;;;11.15;5.75;;;;;;;28.55;36.58;99521.00;4363685;32;34071;-85
2023/09/10 09:41:54;;;;;;;9.65;4.87;;;;;;;28.55;36.11;99520.16;4376008;32;33648;-84
2023/09/10 09:44:21;;;;;;;8.00;4.60;;;;;;;28.81;35.42;99516.88;4362628;32;34071;-86
2023/09/10 09:46:50;;;;;;;9.75;4.57;;;;;;;28.91;33.86;99517.22;4375626;32;34336;-85
2023/09/10 09:49:18;;;;;;;8.32;4.55;;;;;;;28.91;34.57;99516.38;4375334;32;33138;-85
2023/09/10 09:51:48;;;;;;;9.55;4.95;;;;;;;28.95;34.39;99513.44;4376636;32;33428;-85
2023/09/10 09:54:15;;;;;;;7.68;4.93;;;;;;;29.15;33.14;99504.28;4388988;32;34025;-84
2023/09/10 09:56:43;;;;;;;6.72;3.92;;;;;;;29.18;35.37;99511.28;4391487;32;35163;-85
2023/09/10 09:59:11;;;;;;;8.55;4.50;;;;;;;29.08;34.62;99514.47;4390601;32;33904;-84
2023/09/10 10:01:39;;;;;;;10.65;5.00;;;;;;;29.59;33.09;99508.84;4374609;32;33128;-91
2023/09/10 10:04:07;;;;;;;7.05;4.68;;;;;;;29.60;33.28;99504.38;4361587;32;32181;-83
2023/09/10 10:06:36;;;;;;;8.90;4.43;;;;;;;29.73;32.69;99502.66;4360206;32;34055;-86
2023/09/10 10:09:18;;;;;;;10.55;4.72;;;;;;;29.41;35.70;99501.91;4373376;32;34391;-93
2023/09/10 10:11:46;;;;;;;9.88;4.75;;;;;;;29.64;34.16;99496.06;4376008;32;33548;-87
2023/09/10 10:14:14;;;;;;;10.05;4.97;;;;;;;29.50;34.57;99488.84;4375648;32;34696;-86
2023/09/10 10:16:42;;;;;;;10.43;4.60;;;;;;;29.65;33.80;99488.91;4362461;32;33295;-91
2023/09/10 10:19:10;;;;;;;9.23;4.62;;;;;;;29.69;32.61;99487.78;4375801;32;34312;-87
2023/09/10 10:21:38;;;;;;;8.18;4.95;;;;;;;29.89;32.11;99481.19;4362375;32;34457;-87
2023/09/10 10:24:07;;;;;;;14.30;5.68;;;;;;;29.84;32.57;99484.16;4362603;32;33630;-86
2023/09/10 10:26:35;;;;;;;9.23;4.65;;;;;;;30.01;32.87;99472.44;4376001;32;33888;-92
2023/09/10 10:29:03;;;;;;;8.35;4.82;;;;;;;29.88;32.45;99480.34;4375905;32;34678;-84
2023/09/10 10:31:32;;;;;;;9.30;4.78;;;;;;;30.05;32.96;99474.81;4376516;32;33404;-84
2023/09/10 10:34:22;;;;;;;7.20;4.70;;;;;;;30.21;31.92;99471.19;4362806;32;33986;-85
2023/09/10 10:37:11;;;;;;;8.68;4.47;;;;;;;30.33;32.08;99466.87;4374374;32;34165;-88
2023/09/10 10:39:49;;;;;;;10.27;5.22;;;;;;;30.30;31.60;99475.94;4368843;32;34423;-83
2023/09/10 10:42:20;;;;;;;6.62;4.55;;;;;;;30.23;31.17;99477.28;4361668;32;33513;-83
2023/09/10 10:44:49;;;;;;;9.82;4.20;;;;;;;29.99;32.47;99469.84;4362354;32;33383;-84
2023/09/10 10:47:19;;;;;;;8.70;4.35;;;;;;;30.26;33.20;99472.63;4362304;32;35074;-84
2023/09/10 10:49:54;;;;;;;9.13;5.20;;;;;;;30.12;31.93;99466.38;4376198;32;34589;-84
2023/09/10 10:52:25;;;;;;;8.48;4.37;;;;;;;30.42;31.45;99453.78;4362311;32;33564;-85
2023/09/10 10:54:53;;;;;;;8.50;5.45;;;;;;;30.42;32.76;99461.81;4360941;32;34067;-85
2023/09/10 10:57:21;;;;;;;8.98;4.20;;;;;;;30.27;31.85;99452.97;4375196;32;34213;-86
2023/09/10 10:59:49;;;;;;;9.05;5.25;;;;;;;30.68;31.58;99456.56;4362575;32;34110;-87
2023/09/10 11:02:22;;;;;;;7.50;4.40;;;;;;;30.72;30.58;99444.69;4362353;32;34127;-86
2023/09/10 11:04:54;;;;;;;9.80;4.45;;;;;;;30.62;30.19;99440.94;4361854;32;33912;-86
2023/09/10 11:07:22;;;;;;;9.68;4.30;;;;;;;30.33;31.81;99441.00;4377255;32;34068;-87
2023/09/10 11:09:50;;;;;;;9.45;4.80;;;;;;;30.55;32.86;99440.47;4362477;32;33731;-88
2023/09/10 11:12:18;;;;;;;12.23;4.87;;;;;;;30.61;32.53;99450.78;4375157;32;32821;-87
2023/09/10 11:15:00;;;;;;;9.73;5.00;;;;;;;30.73;31.35;99433.06;4375628;32;34026;-86
2023/09/10 11:17:32;;;;;;;10.35;4.60;;;;;;;31.10;30.20;99433.28;4374645;32;34970;-87
2023/09/10 11:20:00;;;;;;;7.18;4.43;;;;;;;30.70;30.81;99438.59;4361759;32;34497;-88
2023/09/10 11:23:14;;;;;;;9.90;4.85;;;;;;;30.66;32.31;99432.59;4374824;32;33526;-87
2023/09/10 11:25:42;;;;;;;7.35;4.65;;;;;;;30.53;32.56;99435.22;4373522;32;33935;-86
2023/09/10 11:28:42;;;;;;;8.43;4.30;;;;;;;30.71;30.55;99440.31;4361159;32;34092;-96
2023/09/10 11:31:52;;;;;;;6.57;4.43;;;;;;;31.15;28.36;99434.69;4375625;32;33950;-85
2023/09/10 11:34:31;;;;;;;7.85;4.70;;;;;;;30.62;31.63;99436.44;4374763;32;33637;-86
2023/09/10 11:37:02;;;;;;;10.43;4.80;;;;;;;30.78;29.83;99431.81;4369266;32;34821;-84
2023/09/10 11:39:31;;;;;;;7.78;4.35;;;;;;;30.81;30.72;99436.09;4376074;32;34143;-91
2023/09/10 11:42:01;;;;;;;8.63;4.62;;;;;;;30.70;29.75;99433.25;4375616;32;35347;-85